Terminal Aerodrome Forecast
Issued by NWS

Home | Current Version | Previous Version | Text Only | Print | Product List | Glossary On
Versions: 1 2 3 4 5 6 7 8 9 10 11 12 13 14 15 16 17
000
FTAK31 PAJN 021146
TAFAWG
TAF
PAWG 021146Z 0212/0312 12006KT P6SM -RA SCT020 OVC050
     FM021400 12010KT P6SM -SHRA SCT015 OVC035
     FM022200 27008KT P6SM -SHRA BKN035 OVC060
     FM030200 VRB03KT P6SM VCSH SCT035 OVC060
      AMD LTD TO CLD VIS AND WIND 0212/0215=

USA.gov is the U.S. government's official web portal to all federal, state and local government web resources and services.